Time;durP1;ratioP1;P1;durP2;ratioP2;P2;SDS_P1;SDS_P2;PMS_P1;PMS_P2;Temp;Humidity;BMP_temperature;BMP_pressure;BME280_temperature;BME280_humidity;BME280_pressure;Samples;Min_cycle;Max_cycle;Signal;HPM_P1;HPM_P2
2021/04/17 00:03:04;;;;;;;10.37;6.60;;;;;;;2.44;91.67;98926.26;239514;1196;23099;-76
2021/04/17 00:08:08;;;;;;;7.43;5.27;;;;;;;2.48;91.92;98923.97;239374;1196;23114;-75
2021/04/17 00:13:12;;;;;;;7.67;6.33;;;;;;;2.44;91.76;98918.33;239397;1199;23231;-76
2021/04/17 00:18:15;;;;;;;7.50;5.90;;;;;;;2.39;91.69;98921.67;239365;1195;23122;-75
2021/04/17 00:23:18;;;;;;;7.40;5.50;;;;;;;2.35;91.54;98924.98;239334;1196;23337;-76
2021/04/17 00:28:20;;;;;;;5.67;4.20;;;;;;;2.35;91.43;98923.17;239574;1196;23092;-75
2021/04/17 00:33:24;;;;;;;5.47;4.63;;;;;;;2.33;91.81;98919.94;239569;1196;23116;-75
2021/04/17 00:38:28;;;;;;;6.20;5.10;;;;;;;2.32;92.13;98912.23;239202;1195;23119;-75
2021/04/17 00:43:32;;;;;;;6.67;5.80;;;;;;;2.32;91.51;98907.77;239328;1196;23105;-75
2021/04/17 00:48:35;;;;;;;5.90;5.10;;;;;;;2.29;91.81;98912.70;239727;1196;23103;-75
2021/04/17 00:53:39;;;;;;;7.80;5.25;;;;;;;2.30;92.01;98914.32;239680;1199;23111;-75
2021/04/17 00:58:43;;;;;;;6.30;4.60;;;;;;;2.34;91.60;98918.11;239523;1196;23142;-76
2021/04/17 01:04:25;;;;;;;8.97;6.50;;;;;;;2.35;91.74;98922.34;239425;1196;23143;-75
2021/04/17 01:09:43;;;;;;;8.93;6.40;;;;;;;2.38;92.26;98914.77;239312;1196;23105;-75
2021/04/17 01:14:48;;;;;;;7.37;5.90;;;;;;;2.38;91.29;98921.91;239734;1196;26121;-75
2021/04/17 01:20:00;;;;;;;9.00;6.43;;;;;;;2.38;91.79;98920.06;239636;1196;23118;-76
2021/04/17 01:25:13;;;;;;;10.83;7.40;;;;;;;2.39;91.49;98923.49;239574;1196;23187;-75
2021/04/17 01:30:19;;;;;;;12.40;8.40;;;;;;;2.46;91.97;98918.09;239382;1196;23134;-75
2021/04/17 01:35:22;;;;;;;10.90;7.20;;;;;;;2.49;92.27;98921.09;239534;1196;23155;-76
2021/04/17 01:40:27;;;;;;;10.80;8.00;;;;;;;2.50;91.95;98921.88;239239;1196;23231;-76
2021/04/17 01:45:33;;;;;;;14.60;10.40;;;;;;;2.50;91.48;98920.03;239655;1196;23183;-75
2021/04/17 01:50:37;;;;;;;14.60;11.07;;;;;;;2.51;91.80;98915.56;239710;1196;23244;-76
2021/04/17 01:55:40;;;;;;;13.60;9.53;;;;;;;2.54;92.10;98913.25;239675;1196;23081;-76
2021/04/17 02:00:43;;;;;;;11.97;9.27;;;;;;;2.55;91.98;98917.51;239515;1199;23122;-75
2021/04/17 02:05:48;;;;;;;10.67;8.87;;;;;;;2.57;92.29;98914.63;239569;1199;23108;-76
2021/04/17 02:10:52;;;;;;;12.60;8.63;;;;;;;2.61;91.82;98920.27;239202;1199;23120;-76
2021/04/17 02:16:04;;;;;;;12.05;8.65;;;;;;;2.61;92.52;98917.63;239451;1195;23091;-76
2021/04/17 02:21:10;;;;;;;9.87;8.30;;;;;;;2.67;91.97;98916.69;239511;1195;23081;-76
2021/04/17 02:26:13;;;;;;;11.67;8.70;;;;;;;2.71;92.27;98916.01;239473;1194;23198;-76
2021/04/17 02:31:16;;;;;;;8.43;6.87;;;;;;;2.75;91.92;98916.33;239756;1196;23115;-76
2021/04/17 02:36:20;;;;;;;12.33;9.40;;;;;;;2.74;92.27;98912.89;239296;1196;23269;-77
2021/04/17 02:41:23;;;;;;;11.70;7.80;;;;;;;2.74;92.04;98909.42;239314;1196;23146;-76
2021/04/17 02:46:26;;;;;;;11.05;8.20;;;;;;;2.76;91.68;98909.19;239684;1196;23231;-76
2021/04/17 02:51:29;;;;;;;9.45;7.30;;;;;;;2.75;92.20;98908.39;239402;1196;23194;-76
2021/04/17 02:56:32;;;;;;;10.10;7.90;;;;;;;2.77;92.00;98900.22;239349;1196;23204;-76
2021/04/17 03:01:35;;;;;;;10.20;8.60;;;;;;;2.80;91.71;98894.45;239381;1196;23116;-76
2021/04/17 03:06:38;;;;;;;12.13;9.23;;;;;;;2.80;91.67;98897.09;239743;1196;23104;-75
2021/04/17 03:11:41;;;;;;;11.97;7.60;;;;;;;2.77;92.08;98906.33;239626;1196;23141;-76
2021/04/17 03:16:44;;;;;;;16.80;11.15;;;;;;;2.72;91.96;98900.93;239361;1196;23116;-75
2021/04/17 03:21:47;;;;;;;20.17;11.87;;;;;;;2.68;91.96;98903.22;239238;1196;23250;-75
2021/04/17 03:26:50;;;;;;;23.10;14.30;;;;;;;2.69;92.12;98906.69;239389;1199;23182;-76
2021/04/17 03:31:53;;;;;;;20.47;13.77;;;;;;;2.68;91.93;98907.72;239196;1196;23106;-75
2021/04/17 03:36:56;;;;;;;20.27;13.47;;;;;;;2.75;92.39;98918.97;239437;1196;23111;-76
2021/04/17 03:41:59;;;;;;;18.43;11.63;;;;;;;2.82;91.98;98914.35;239585;1196;23094;-75
2021/04/17 03:47:02;;;;;;;15.00;10.70;;;;;;;2.81;91.97;98912.77;239121;1199;23166;-76
2021/04/17 03:52:07;;;;;;;17.35;11.50;;;;;;;2.81;92.28;98923.34;239255;1196;23653;-76
2021/04/17 03:57:10;;;;;;;13.40;9.57;;;;;;;2.79;92.07;98920.11;239530;1196;23105;-75
2021/04/17 04:02:14;;;;;;;12.00;9.40;;;;;;;2.78;92.04;98926.44;239248;1197;23176;-75
2021/04/17 04:07:18;;;;;;;10.37;8.27;;;;;;;2.78;91.79;98929.08;239209;1196;23112;-75
2021/04/17 04:12:21;;;;;;;12.00;7.75;;;;;;;2.76;91.93;98931.17;239493;1196;27252;-75
2021/04/17 04:17:25;;;;;;;9.30;7.20;;;;;;;2.71;91.91;98939.81;239156;1196;23132;-76
2021/04/17 04:22:28;;;;;;;10.30;7.65;;;;;;;2.67;91.99;98936.02;239363;1199;23106;-76
2021/04/17 04:27:30;;;;;;;12.35;8.00;;;;;;;2.74;92.44;98938.52;239694;1196;23138;-75
2021/04/17 04:32:33;;;;;;;11.30;7.93;;;;;;;2.75;92.10;98932.20;239791;1196;23141;-75
2021/04/17 04:37:36;;;;;;;9.70;7.43;;;;;;;2.83;92.36;98939.78;239359;1196;26258;-76
2021/04/17 04:42:41;;;;;;;11.93;8.80;;;;;;;2.82;92.30;98935.52;239467;1196;23131;-75
2021/04/17 04:47:43;;;;;;;12.10;8.00;;;;;;;2.78;91.57;98934.38;239864;1196;23114;-75
2021/04/17 04:52:46;;;;;;;13.15;8.55;;;;;;;2.79;92.02;98940.48;239524;1196;23135;-76
2021/04/17 04:57:50;;;;;;;12.35;9.10;;;;;;;2.82;91.83;98932.88;239462;1196;23119;-76
2021/04/17 05:02:53;;;;;;;9.45;6.70;;;;;;;2.81;91.71;98933.93;239447;1196;23275;-75
2021/04/17 05:07:56;;;;;;;11.87;8.87;;;;;;;2.83;91.67;98934.48;239802;1196;23205;-76
2021/04/17 05:12:58;;;;;;;17.20;12.33;;;;;;;2.85;92.03;98935.05;239316;1199;23266;-75
2021/04/17 05:18:01;;;;;;;16.10;12.50;;;;;;;2.89;92.34;98930.89;239531;1198;26223;-76
2021/04/17 05:23:05;;;;;;;11.20;9.70;;;;;;;2.90;91.78;98937.80;239430;1196;23114;-76
2021/04/17 05:28:10;;;;;;;6.60;5.80;;;;;;;2.90;91.70;98932.52;239536;1198;23121;-75
2021/04/17 05:33:13;;;;;;;11.33;8.13;;;;;;;2.87;91.90;98938.28;239546;1196;23151;-76
2021/04/17 05:38:16;;;;;;;11.00;8.07;;;;;;;2.86;91.83;98944.59;239104;1196;23123;-76
2021/04/17 05:43:18;;;;;;;9.83;8.37;;;;;;;2.89;91.49;98943.33;239424;1196;23247;-75
2021/04/17 05:48:21;;;;;;;10.03;7.43;;;;;;;2.89;91.80;98945.98;239480;1196;23199;-76
2021/04/17 05:53:25;;;;;;;9.05;7.70;;;;;;;2.88;91.23;98952.30;239192;1196;23094;-75
2021/04/17 05:58:28;;;;;;;11.30;8.40;;;;;;;2.91;91.74;98952.66;239299;1196;23102;-76
2021/04/17 06:03:32;;;;;;;8.73;7.40;;;;;;;2.98;91.68;98946.41;239331;1196;23227;-75
2021/04/17 06:08:34;;;;;;;9.57;6.77;;;;;;;3.01;92.02;98951.27;239362;1196;26230;-75
2021/04/17 06:13:38;;;;;;;7.90;6.50;;;;;;;3.00;91.19;98944.35;239586;1196;23600;-76
2021/04/17 06:18:40;;;;;;;8.20;6.35;;;;;;;3.00;91.88;98941.70;239171;1196;23118;-75
2021/04/17 06:23:45;;;;;;;7.23;6.10;;;;;;;3.01;91.74;98948.61;239540;1196;23124;-75
2021/04/17 06:28:48;;;;;;;9.45;6.70;;;;;;;3.05;91.48;98944.44;239547;1197;23146;-76
2021/04/17 06:33:51;;;;;;;8.75;6.60;;;;;;;3.07;91.50;98945.02;239620;1196;23254;-76
2021/04/17 06:38:53;;;;;;;9.37;7.20;;;;;;;3.12;91.87;98945.13;239851;1196;23251;-76
2021/04/17 06:43:56;;;;;;;9.73;7.30;;;;;;;3.17;91.67;98939.91;239687;1196;23101;-76
2021/04/17 06:49:05;;;;;;;9.87;8.13;;;;;;;3.20;91.46;98942.08;239777;1196;23127;-76
2021/04/17 06:54:11;;;;;;;8.47;6.60;;;;;;;3.27;91.26;98933.22;239650;1196;23148;-76
2021/04/17 06:59:14;;;;;;;8.00;6.80;;;;;;;3.30;91.29;98943.33;239632;1196;23114;-77
2021/04/17 07:04:18;;;;;;;11.00;7.93;;;;;;;3.31;91.14;98940.44;240077;1196;23130;-76
2021/04/17 07:09:22;;;;;;;8.27;6.90;;;;;;;3.31;91.38;98945.73;240056;1196;23162;-76
2021/04/17 07:14:25;;;;;;;9.20;7.40;;;;;;;3.33;90.90;98943.67;240697;1196;23095;-78
2021/04/17 07:19:54;;;;;;;10.83;7.77;;;;;;;3.39;91.29;98950.66;241888;1195;22913;-77
2021/04/17 07:25:14;;;;;;;10.77;7.47;;;;;;;3.44;91.07;98947.29;239985;1196;23126;-77
2021/04/17 07:30:17;;;;;;;9.25;7.10;;;;;;;3.45;90.94;98954.20;240276;1196;23094;-77
2021/04/17 07:35:22;;;;;;;8.80;6.80;;;;;;;3.45;90.84;98962.15;240060;1196;23355;-78
2021/04/17 07:40:26;;;;;;;11.60;7.90;;;;;;;3.47;91.36;98965.38;240074;1196;23540;-77
2021/04/17 07:45:30;;;;;;;12.37;7.77;;;;;;;3.53;90.83;98961.77;239722;1196;23310;-78
2021/04/17 07:50:35;;;;;;;9.95;7.10;;;;;;;3.58;91.03;98961.88;239740;1196;23115;-78
2021/04/17 07:55:39;;;;;;;8.83;6.67;;;;;;;3.62;91.25;98964.83;239910;1196;23101;-77
2021/04/17 08:00:43;;;;;;;9.75;7.70;;;;;;;3.70;91.22;98971.61;240067;1196;23128;-78
2021/04/17 08:05:46;;;;;;;11.80;8.30;;;;;;;3.65;90.93;98984.75;240083;1196;23241;-77
2021/04/17 08:10:49;;;;;;;12.23;8.33;;;;;;;3.57;91.00;98976.15;239853;1196;23163;-78
2021/04/17 08:15:52;;;;;;;11.90;9.00;;;;;;;3.53;90.32;98984.81;240576;1195;23165;-78
2021/04/17 08:20:55;;;;;;;11.70;8.50;;;;;;;3.48;90.40;98977.56;240959;1196;23307;-78
2021/04/17 08:26:04;;;;;;;12.10;9.17;;;;;;;3.48;90.65;98988.16;240318;1196;23141;-78
2021/04/17 08:31:36;;;;;;;14.70;9.87;;;;;;;3.51;90.76;98989.53;239805;1196;23507;-78
2021/04/17 08:36:45;;;;;;;11.20;8.03;;;;;;;3.57;90.92;98983.30;239895;1196;23106;-78
2021/04/17 08:41:49;;;;;;;16.17;11.23;;;;;;;3.59;90.80;98984.66;240227;1196;27164;-78
2021/04/17 08:46:54;;;;;;;13.47;9.87;;;;;;;3.68;90.90;98990.39;240485;1196;23212;-79
2021/04/17 08:52:24;;;;;;;13.37;9.53;;;;;;;3.79;90.83;98986.05;242045;1196;23141;-78
2021/04/17 08:57:28;;;;;;;13.48;9.33;;;;;;;3.92;91.13;98987.63;241012;1195;23453;-78
2021/04/17 09:02:42;;;;;;;10.95;9.00;;;;;;;4.02;90.43;98989.65;242621;1195;23078;-79
2021/04/17 09:07:47;;;;;;;9.90;7.80;;;;;;;4.09;90.60;98988.43;240744;1196;23111;-77
2021/04/17 09:13:25;;;;;;;12.17;8.47;;;;;;;4.12;90.56;98995.11;240766;1194;23119;-77
2021/04/17 09:18:37;;;;;;;12.60;9.35;;;;;;;4.11;90.55;98981.05;241177;1196;23179;-78
2021/04/17 09:23:50;;;;;;;13.30;9.77;;;;;;;4.15;90.37;98983.22;240600;1195;23117;-78
2021/04/17 09:28:53;;;;;;;10.97;7.70;;;;;;;4.18;90.05;98988.03;240822;1196;23125;-78
2021/04/17 09:33:59;;;;;;;11.25;8.35;;;;;;;4.23;90.08;98994.22;240664;1196;23094;-77
2021/04/17 09:39:24;;;;;;;11.45;8.60;;;;;;;4.20;90.10;98994.71;240785;1196;23122;-77
2021/04/17 09:44:47;;;;;;;10.20;7.63;;;;;;;4.24;90.19;98992.36;240922;1199;23111;-78
2021/04/17 09:49:50;;;;;;;11.87;8.47;;;;;;;4.30;89.68;98991.42;240267;1196;23122;-77
2021/04/17 09:55:00;;;;;;;12.55;8.70;;;;;;;4.41;90.01;98990.53;239961;1196;23075;-78
2021/04/17 10:00:07;;;;;;;13.05;8.90;;;;;;;4.41;89.78;98987.08;240095;1200;23163;-77
2021/04/17 10:05:31;;;;;;;14.47;9.80;;;;;;;4.49;89.84;98985.85;240625;1196;23148;-77
2021/04/17 10:10:36;;;;;;;14.30;9.00;;;;;;;4.54;89.63;98984.08;240388;1195;26236;-77
2021/04/17 10:15:46;;;;;;;13.07;8.80;;;;;;;4.57;89.64;98990.75;239837;1196;23125;-78
2021/04/17 10:20:49;;;;;;;12.97;9.67;;;;;;;4.58;89.77;98982.55;240196;1196;23257;-79
2021/04/17 10:25:51;;;;;;;13.40;8.85;;;;;;;4.67;90.19;98984.78;240549;1195;23165;-77
2021/04/17 10:31:07;;;;;;;8.83;6.70;;;;;;;4.71;89.51;98975.30;240151;1196;23552;-77
2021/04/17 10:36:20;;;;;;;12.67;9.17;;;;;;;4.81;89.57;98975.42;240175;1196;23183;-77
2021/04/17 10:41:31;;;;;;;9.30;8.03;;;;;;;4.93;89.78;98968.15;240008;1196;26217;-78
2021/04/17 10:46:52;;;;;;;13.33;9.63;;;;;;;4.96;89.25;98978.27;240839;1195;23217;-79
2021/04/17 10:51:56;;;;;;;11.47;8.43;;;;;;;5.16;89.99;98973.47;240464;1195;23112;-78
2021/04/17 10:57:02;;;;;;;11.25;9.10;;;;;;;5.28;89.26;98972.28;240881;1196;23103;-77
2021/04/17 11:02:06;;;;;;;11.10;8.75;;;;;;;5.44;89.27;98973.27;240788;1196;23121;-77
2021/04/17 11:07:11;;;;;;;11.90;9.60;;;;;;;5.46;89.31;98979.13;239888;1196;25968;-76
2021/04/17 11:12:29;;;;;;;15.15;9.40;;;;;;;5.44;88.87;98965.30;239882;1196;23160;-77
2021/04/17 11:17:32;;;;;;;17.33;11.07;;;;;;;5.43;88.40;98966.34;239776;1199;23115;-76
2021/04/17 11:22:35;;;;;;;19.10;11.27;;;;;;;5.45;88.90;98974.06;239921;1195;23116;-77
2021/04/17 11:27:38;;;;;;;15.80;11.10;;;;;;;5.57;89.20;98969.41;239610;1196;23094;-76
2021/04/17 11:32:41;;;;;;;15.43;9.20;;;;;;;5.64;88.45;98977.20;239491;1196;26080;-76
2021/04/17 11:37:45;;;;;;;14.25;10.35;;;;;;;5.62;88.65;98974.79;239894;1196;23134;-77
2021/04/17 11:42:49;;;;;;;14.30;10.05;;;;;;;5.64;88.62;98977.20;239728;1196;23112;-77
2021/04/17 11:47:53;;;;;;;13.45;10.05;;;;;;;5.61;88.11;98981.15;239692;1196;23109;-76
2021/04/17 11:52:56;;;;;;;12.83;9.33;;;;;;;5.68;88.40;98977.48;239914;1196;23103;-77
2021/04/17 11:57:58;;;;;;;16.23;10.90;;;;;;;5.69;88.57;98979.09;239904;1196;23225;-76
2021/04/17 12:03:02;;;;;;;12.60;10.03;;;;;;;5.63;87.68;98987.00;239498;1196;23097;-76
2021/04/17 12:08:06;;;;;;;14.67;10.60;;;;;;;5.55;87.96;98990.10;239985;1196;23089;-76
2021/04/17 12:13:09;;;;;;;14.45;10.25;;;;;;;5.57;88.18;98982.70;239337;1196;23165;-76
2021/04/17 12:18:12;;;;;;;12.95;9.65;;;;;;;5.55;87.86;98981.34;239636;1196;23133;-77
2021/04/17 12:23:17;;;;;;;13.07;9.73;;;;;;;5.42;87.66;98985.20;239626;1196;23122;-76
2021/04/17 12:28:23;;;;;;;16.70;10.85;;;;;;;5.28;87.62;98988.22;239737;1196;23092;-76
2021/04/17 12:33:27;;;;;;;15.60;10.57;;;;;;;5.31;87.96;98987.72;239578;1194;23151;-78
2021/04/17 12:38:29;;;;;;;12.27;9.53;;;;;;;5.34;87.30;98985.63;239847;1196;23128;-76
2021/04/17 12:43:33;;;;;;;16.27;11.80;;;;;;;5.24;87.62;98984.45;240146;1196;26032;-76
2021/04/17 12:48:37;;;;;;;16.53;12.20;;;;;;;5.17;88.01;98991.81;240123;1196;23239;-77
2021/04/17 12:53:40;;;;;;;17.40;11.80;;;;;;;5.19;87.67;98979.10;239689;1196;23117;-77
2021/04/17 12:58:43;;;;;;;12.40;10.20;;;;;;;5.35;88.48;98976.62;239875;1196;23111;-76
2021/04/17 13:03:47;;;;;;;15.05;10.30;;;;;;;5.44;88.28;98978.59;239811;1196;23112;-75
2021/04/17 13:08:50;;;;;;;16.77;11.87;;;;;;;5.41;87.54;98978.27;240061;1195;23240;-76
2021/04/17 13:13:52;;;;;;;14.70;11.15;;;;;;;5.40;88.03;98985.45;239745;1196;23279;-76
2021/04/17 13:18:56;;;;;;;18.50;12.45;;;;;;;5.37;87.95;98980.61;239633;1196;23134;-76
2021/04/17 13:23:59;;;;;;;20.00;13.25;;;;;;;5.26;87.39;98990.34;239841;1196;23251;-76
2021/04/17 13:29:01;;;;;;;18.40;12.47;;;;;;;5.16;87.42;98992.84;239677;1195;23112;-76
2021/04/17 13:34:06;;;;;;;19.83;13.70;;;;;;;5.10;87.81;98988.54;239690;1197;23108;-76
2021/04/17 13:39:10;;;;;;;16.77;11.80;;;;;;;5.12;87.67;98994.39;240267;1196;23112;-76
2021/04/17 13:44:14;;;;;;;18.70;12.57;;;;;;;5.04;87.69;98995.64;239573;1196;23143;-76
2021/04/17 13:49:16;;;;;;;18.30;11.90;;;;;;;5.04;87.82;98992.19;239748;1196;27314;-77
2021/04/17 13:54:19;;;;;;;22.00;12.85;;;;;;;5.06;88.01;98990.88;239730;1196;23262;-77
2021/04/17 13:59:22;;;;;;;17.53;12.37;;;;;;;5.13;87.97;98985.38;239868;1196;23247;-77
2021/04/17 14:04:24;;;;;;;17.83;11.80;;;;;;;5.13;88.13;98982.73;240080;1196;23112;-76
2021/04/17 14:09:27;;;;;;;19.70;13.10;;;;;;;5.22;88.15;98978.59;239668;1196;23114;-77
2021/04/17 14:14:30;;;;;;;18.25;13.00;;;;;;;5.39;88.40;98986.49;239690;1196;23111;-76
2021/04/17 14:19:33;;;;;;;17.23;12.93;;;;;;;5.45;87.85;98982.83;239658;1196;23236;-76
2021/04/17 14:24:36;;;;;;;20.67;14.27;;;;;;;5.42;87.51;98977.22;239497;1195;23193;-76
2021/04/17 14:29:39;;;;;;;25.70;14.85;;;;;;;5.33;87.35;98981.36;239584;1196;23118;-76
2021/04/17 14:34:43;;;;;;;19.40;14.25;;;;;;;5.28;87.58;98987.42;239400;1199;23559;-76
2021/04/17 14:39:45;;;;;;;22.50;14.35;;;;;;;5.19;88.00;98984.41;239646;1195;23111;-77
2021/04/17 14:44:48;;;;;;;22.95;15.00;;;;;;;5.15;87.66;98980.64;239680;1196;23283;-76
2021/04/17 14:49:51;;;;;;;21.25;13.60;;;;;;;5.15;87.88;98988.61;239529;1196;23148;-75
2021/04/17 14:54:56;;;;;;;22.33;15.00;;;;;;;5.17;88.25;98988.36;239374;1196;23119;-76
2021/04/17 14:59:59;;;;;;;22.25;14.35;;;;;;;5.18;88.12;98980.14;239457;1196;26632;-76
2021/04/17 15:05:02;;;;;;;24.55;16.70;;;;;;;5.27;88.22;98985.81;239620;1196;23098;-75
2021/04/17 15:10:05;;;;;;;25.77;16.67;;;;;;;5.34;88.05;98990.95;239781;1196;23227;-77
2021/04/17 15:15:09;;;;;;;24.63;16.77;;;;;;;5.38;88.12;98994.71;239579;1196;23101;-76
2021/04/17 15:20:13;;;;;;;26.33;16.17;;;;;;;5.35;87.80;98984.59;239732;1196;26000;-76
2021/04/17 15:25:16;;;;;;;23.10;15.27;;;;;;;5.27;87.46;98986.64;239803;1196;23121;-76
2021/04/17 15:30:19;;;;;;;23.95;15.90;;;;;;;5.27;88.05;98976.02;239826;1196;23127;-76
2021/04/17 15:35:24;;;;;;;26.60;19.50;;;;;;;5.29;88.00;98979.20;239734;1196;23194;-77
2021/04/17 15:40:26;;;;;;;25.75;17.65;;;;;;;5.34;88.07;98973.14;239680;1196;23134;-76
2021/04/17 15:45:29;;;;;;;25.40;16.83;;;;;;;5.31;87.67;98974.44;239940;1196;23112;-76
2021/04/17 15:50:32;;;;;;;23.83;16.00;;;;;;;5.29;88.08;98970.45;239744;1196;23267;-76
2021/04/17 15:55:35;;;;;;;24.60;16.47;;;;;;;5.23;87.89;98968.77;239455;1199;23129;-77
2021/04/17 16:17:02;;;;;;;30.43;19.63;;;;;;;5.13;88.07;98972.92;239599;1196;23129;-76
2021/04/17 16:22:05;;;;;;;33.60;19.67;;;;;;;5.12;88.38;98973.97;240016;1196;23112;-76
2021/04/17 16:27:07;;;;;;;29.10;20.50;;;;;;;5.11;88.23;98967.05;239728;1196;23163;-77
2021/04/17 16:32:11;;;;;;;30.10;20.50;;;;;;;5.10;88.38;98962.77;239897;1196;23179;-76
2021/04/17 16:37:15;;;;;;;33.33;19.87;;;;;;;5.12;88.55;98970.48;239916;1196;23727;-76
2021/04/17 16:42:31;;;;;;;22.13;14.50;;;;;;;5.10;88.32;98967.30;240397;1194;23121;-76
2021/04/17 16:47:33;;;;;;;33.60;21.05;;;;;;;5.07;88.21;98970.45;240232;1198;23118;-77
2021/04/17 16:52:38;;;;;;;25.87;17.33;;;;;;;5.07;88.57;98970.45;240030;1196;23167;-76
2021/04/17 16:57:40;;;;;;;25.35;16.65;;;;;;;5.06;88.52;98972.28;239865;1196;23286;-76
2021/04/17 17:02:43;;;;;;;34.85;22.20;;;;;;;4.96;88.10;98975.61;239806;1196;23112;-76
2021/04/17 17:07:47;;;;;;;33.97;20.87;;;;;;;4.94;88.19;98969.77;239909;1196;23108;-76
2021/04/17 17:12:50;;;;;;;35.50;21.30;;;;;;;4.99;88.98;98982.29;239841;1197;23135;-76
2021/04/17 17:17:52;;;;;;;32.83;22.30;;;;;;;5.00;89.10;98981.25;239769;1196;24597;-76
2021/04/17 17:22:55;;;;;;;32.55;20.60;;;;;;;5.00;88.91;98988.42;239885;1196;23102;-77
2021/04/17 17:27:59;;;;;;;35.63;21.33;;;;;;;4.94;88.79;98987.55;239867;1195;23220;-76
2021/04/17 17:33:02;;;;;;;37.67;22.00;;;;;;;4.94;88.50;98984.90;239891;1196;23130;-75
2021/04/17 17:38:07;;;;;;;38.93;22.60;;;;;;;4.91;89.03;98980.88;239683;1195;23106;-75
2021/04/17 17:43:11;;;;;;;36.70;23.13;;;;;;;4.95;89.13;98989.14;239622;1196;23114;-76
2021/04/17 17:48:14;;;;;;;36.45;22.80;;;;;;;4.94;89.02;98992.86;239712;1196;23191;-76
2021/04/17 17:53:17;;;;;;;39.43;22.70;;;;;;;4.83;88.52;98989.27;239899;1196;23138;-75
2021/04/17 17:58:19;;;;;;;40.27;23.20;;;;;;;4.74;88.61;98990.72;239565;1196;23135;-77
2021/04/17 18:03:23;;;;;;;40.30;23.23;;;;;;;4.75;89.22;98987.81;239847;1199;23353;-76
2021/04/17 18:08:25;;;;;;;38.45;22.45;;;;;;;4.81;89.44;98996.66;239761;1199;23132;-75
2021/04/17 18:13:28;;;;;;;36.25;21.60;;;;;;;4.85;89.69;98994.33;239771;1196;23130;-76
2021/04/17 18:18:30;;;;;;;48.47;26.40;;;;;;;4.85;89.79;99003.08;239449;1196;23111;-76
2021/04/17 18:23:33;;;;;;;51.03;28.13;;;;;;;4.86;89.22;99020.63;239540;1196;23091;-76
2021/04/17 18:28:36;;;;;;;52.55;28.20;;;;;;;4.90;89.55;99020.95;239767;1199;23116;-76
2021/04/17 18:33:39;;;;;;;49.30;27.40;;;;;;;4.90;89.45;99027.05;239181;1196;23269;-76
2021/04/17 18:38:42;;;;;;;47.50;27.90;;;;;;;4.92;89.69;99019.63;239359;1196;23128;-75
2021/04/17 18:43:44;;;;;;;49.10;27.77;;;;;;;4.87;89.44;99021.41;239212;1196;23118;-75
2021/04/17 18:48:47;;;;;;;57.65;28.50;;;;;;;4.83;89.46;99029.08;239269;1197;23130;-76
2021/04/17 18:53:50;;;;;;;52.60;28.07;;;;;;;4.82;89.32;99024.02;239573;1197;23266;-75
2021/04/17 18:58:53;;;;;;;49.75;26.55;;;;;;;4.82;89.54;99030.12;239682;1196;23115;-76
2021/04/17 19:03:55;;;;;;;44.93;25.53;;;;;;;4.84;89.42;99028.04;239369;1196;23134;-76
2021/04/17 19:08:59;;;;;;;43.33;25.87;;;;;;;4.88;89.93;99028.34;239375;1196;23456;-76
2021/04/17 19:14:05;;;;;;;35.20;22.10;;;;;;;4.93;90.13;99033.73;239494;1199;23147;-76
2021/04/17 19:19:07;;;;;;;43.20;25.30;;;;;;;4.91;89.90;99026.01;239409;1196;27599;-75
2021/04/17 19:24:11;;;;;;;46.05;25.65;;;;;;;4.85;89.54;99023.52;239703;1196;23134;-76
2021/04/17 19:29:14;;;;;;;56.97;28.07;;;;;;;4.86;89.84;99031.23;239841;1196;23153;-75
2021/04/17 19:34:17;;;;;;;50.37;27.80;;;;;;;4.84;89.60;99033.34;239769;1196;23136;-76
2021/04/17 19:39:20;;;;;;;45.30;25.05;;;;;;;4.83;89.89;99031.73;239589;1196;23245;-76
2021/04/17 19:44:22;;;;;;;44.25;25.10;;;;;;;4.79;90.11;99025.30;239618;1197;23129;-75
2021/04/17 19:49:26;;;;;;;44.07;24.17;;;;;;;4.76;89.85;99017.84;239913;1195;26230;-76
2021/04/17 19:54:30;;;;;;;47.10;24.95;;;;;;;4.75;90.07;99024.97;239369;1196;23118;-76
2021/04/17 19:59:33;;;;;;;45.53;23.80;;;;;;;4.79;90.30;99028.75;239865;1199;23112;-76
2021/04/17 20:04:36;;;;;;;37.40;20.95;;;;;;;4.80;90.35;99021.61;239927;1196;23166;-76
2021/04/17 20:09:39;;;;;;;35.60;20.03;;;;;;;4.79;90.22;99023.44;239506;1196;23103;-75
2021/04/17 20:14:42;;;;;;;38.90;21.47;;;;;;;4.74;90.44;99023.39;239495;1196;23160;-75
2021/04/17 20:19:44;;;;;;;46.77;23.97;;;;;;;4.72;90.21;99019.37;239525;1195;23131;-75
2021/04/17 20:24:52;;;;;;;44.83;23.57;;;;;;;4.72;90.30;99022.02;239452;1196;23160;-75
2021/04/17 20:29:55;;;;;;;39.23;19.57;;;;;;;4.70;90.10;99019.61;239573;1195;23106;-75
2021/04/17 20:34:59;;;;;;;45.20;24.40;;;;;;;4.72;90.32;99022.02;239861;1196;23132;-74
2021/04/17 20:40:03;;;;;;;42.90;24.20;;;;;;;4.75;90.50;99024.97;239571;1196;23144;-76
2021/04/17 20:45:06;;;;;;;42.35;23.75;;;;;;;4.77;90.67;99024.73;239360;1196;27310;-76
2021/04/17 20:50:10;;;;;;;44.73;22.97;;;;;;;4.78;90.57;99036.95;239603;1199;25965;-76
2021/04/17 20:55:14;;;;;;;40.85;21.30;;;;;;;4.83;90.79;99022.95;239464;1196;23111;-75
2021/04/17 21:00:18;;;;;;;48.50;23.20;;;;;;;4.83;90.59;99023.77;239747;1196;23571;-76
2021/04/17 21:05:21;;;;;;;45.10;23.50;;;;;;;4.84;90.50;99020.08;239382;1196;23116;-76
2021/04/17 21:10:24;;;;;;;40.27;22.27;;;;;;;4.84;90.13;99017.42;239472;1196;23118;-76
2021/04/17 21:15:27;;;;;;;43.65;23.20;;;;;;;4.81;90.28;99023.20;239302;1196;23098;-75
2021/04/17 21:20:30;;;;;;;40.73;21.87;;;;;;;4.80;90.52;99016.30;239493;1196;23128;-76
2021/04/17 21:25:32;;;;;;;37.60;21.65;;;;;;;4.78;90.19;99018.38;239531;1196;23141;-77
2021/04/17 21:30:40;;;;;;;41.00;22.40;;;;;;;4.76;90.43;99015.18;239565;1196;23114;-76
2021/04/17 21:35:46;;;;;;;39.40;21.00;;;;;;;4.77;90.42;99014.11;239444;1195;23065;-75
2021/04/17 21:40:49;;;;;;;31.57;18.53;;;;;;;4.78;90.76;99013.07;239579;1196;25701;-76
2021/04/17 21:45:54;;;;;;;35.15;18.80;;;;;;;4.75;90.37;99024.19;239329;1196;23090;-76
2021/04/17 21:50:56;;;;;;;37.50;19.20;;;;;;;4.72;90.64;99025.47;239489;1199;23205;-75
2021/04/17 21:56:02;;;;;;;37.57;19.50;;;;;;;4.71;90.81;99021.20;239465;1196;23134;-76
2021/04/17 22:01:07;;;;;;;34.20;19.15;;;;;;;4.77;90.77;99012.28;239196;1196;23115;-75
2021/04/17 22:06:12;;;;;;;40.35;19.60;;;;;;;4.80;90.95;99024.27;239356;1196;23098;-75
2021/04/17 22:11:14;;;;;;;41.67;20.57;;;;;;;4.83;90.86;99018.46;239786;1196;23111;-75
2021/04/17 22:16:17;;;;;;;42.20;20.10;;;;;;;4.88;91.11;99010.58;239495;1196;23088;-75
2021/04/17 22:21:20;;;;;;;35.50;17.63;;;;;;;4.81;90.63;99015.23;239494;1199;23160;-75
2021/04/17 22:26:23;;;;;;;41.47;19.27;;;;;;;4.76;90.49;99005.36;239409;1199;23256;-75
2021/04/17 22:31:25;;;;;;;41.40;18.87;;;;;;;4.74;90.75;99001.34;239545;1196;23154;-76
2021/04/17 22:36:28;;;;;;;38.60;18.97;;;;;;;4.73;90.67;98997.06;239291;1196;23422;-75
2021/04/17 22:41:31;;;;;;;36.13;17.47;;;;;;;4.74;90.82;98996.84;239477;1196;23115;-75
2021/04/17 22:46:34;;;;;;;38.03;18.27;;;;;;;4.78;91.00;98986.53;239158;1196;23119;-75
2021/04/17 22:51:36;;;;;;;37.37;19.17;;;;;;;4.80;91.00;98992.41;239454;1196;23111;-76
2021/04/17 22:56:39;;;;;;;38.27;18.27;;;;;;;4.84;91.24;98990.88;239449;1196;23102;-75
2021/04/17 23:01:42;;;;;;;43.45;18.85;;;;;;;4.84;90.88;98996.19;239732;1196;23243;-76
2021/04/17 23:06:46;;;;;;;40.95;19.00;;;;;;;4.87;91.28;98982.42;239410;1196;23102;-76
2021/04/17 23:11:49;;;;;;;34.63;16.93;;;;;;;4.89;91.12;98987.48;239792;1196;23138;-75
2021/04/17 23:16:52;;;;;;;33.77;17.27;;;;;;;4.88;91.08;98986.69;239188;1196;23215;-75
2021/04/17 23:21:56;;;;;;;31.07;15.90;;;;;;;4.88;90.91;98981.38;239622;1196;23146;-75
2021/04/17 23:26:58;;;;;;;37.90;18.07;;;;;;;4.83;90.79;98981.30;239345;1196;23142;-75
2021/04/17 23:32:01;;;;;;;38.80;16.97;;;;;;;4.83;90.63;98975.17;239473;1199;23118;-74
2021/04/17 23:37:08;;;;;;;42.85;18.40;;;;;;;4.82;91.20;98963.77;239555;1196;23141;-75
2021/04/17 23:42:11;;;;;;;34.70;17.83;;;;;;;4.86;91.12;98969.39;239643;1196;23211;-75
2021/04/17 23:47:13;;;;;;;37.30;16.97;;;;;;;4.87;91.02;98968.32;239315;1196;23134;-75